Wayside, Wisconsin
Current Conditions -  °F | °C
As of 1:53 AM on Saturday 20 Dec 2014 (Local Time) from KGRB Reporting Station
Broken Clouds Broken Clouds  
Wind Chill: 21°   Ceiling: 3000
Heat Index: 21°   Visibility: 7mi
Dew Point: 19°   Wind: 0mph
Humidity: 92%   Direction: NA
Pressure: 30.27"   Gusts: NA
Location:  44.2894°N, 88.0263°W
Report Text: KGRB 200753Z AUTO 00000KT 7SM BKN030 M06/M07 A3027 RMK AO2 SLP261 T10611072
Loading
Personal Weather Stations






























Interactive Weather Map New forecast layout! Learn more

10-Day Weather Forecast

Advertisements
Track Severe Weather on mobile